createdAt,value
2022-10-07T00:01:31.672Z,70.79
2022-10-07T00:04:34.425Z,70.93
2022-10-07T00:07:38.916Z,70.65
2022-10-07T00:10:43.787Z,70.34
2022-10-07T00:13:48.111Z,70.36
2022-10-07T00:16:51.263Z,70.63
2022-10-07T00:19:54.222Z,71.50
2022-10-07T00:22:58.523Z,70.26
2022-10-07T00:26:02.681Z,71.13
2022-10-07T00:29:07.045Z,71.01
2022-10-07T00:32:09.796Z,71.14
2022-10-07T00:35:12.587Z,70.51
2022-10-07T00:38:16.686Z,70.92
2022-10-07T00:41:21.642Z,70.64
2022-10-07T00:44:42.606Z,71.19
2022-10-07T00:47:47.688Z,71.01
2022-10-07T00:50:53.094Z,71.38
2022-10-07T00:53:57.805Z,71.17
2022-10-07T00:57:00.660Z,71.32
2022-10-07T01:00:03.947Z,71.26
2022-10-07T01:03:06.747Z,71.58
2022-10-07T01:06:10.347Z,71.09
2022-10-07T01:09:14.870Z,71.06
2022-10-07T01:12:24.654Z,71.57
2022-10-07T01:15:37.340Z,70.96
2022-10-07T01:18:47.715Z,70.90
2022-10-07T01:22:03.981Z,72.04
2022-10-07T01:25:24.073Z,71.64
2022-10-07T01:28:33.241Z,72.26
2022-10-07T01:31:39.280Z,71.10
2022-10-07T01:34:44.826Z,71.14
2022-10-07T01:37:50.625Z,71.40
2022-10-07T01:40:58.222Z,71.58
2022-10-07T01:44:02.675Z,71.77
2022-10-07T01:47:05.982Z,71.49
2022-10-07T01:50:13.534Z,71.88
2022-10-07T01:53:44.415Z,71.83
2022-10-07T01:57:01.035Z,71.45
2022-10-07T02:00:11.145Z,71.18
2022-10-07T02:03:31.663Z,70.97
2022-10-07T02:06:44.350Z,71.56
2022-10-07T02:09:52.895Z,71.97
2022-10-07T02:13:06.176Z,72.05
2022-10-07T02:16:17.647Z,71.73
2022-10-07T02:19:23.982Z,71.35
2022-10-07T02:22:29.887Z,71.34
2022-10-07T02:25:37.472Z,71.70
2022-10-07T02:28:43.593Z,71.46
2022-10-07T02:31:49.631Z,71.93
2022-10-07T02:34:55.935Z,71.39
2022-10-07T02:38:02.600Z,72.16
2022-10-07T02:41:10.314Z,71.85
2022-10-07T02:44:25.901Z,71.40
2022-10-07T02:47:35.040Z,71.82
2022-10-07T02:50:42.425Z,72.13
2022-10-07T02:53:49.329Z,71.54
2022-10-07T02:56:54.494Z,71.54
2022-10-07T03:00:01.095Z,72.20
2022-10-07T03:03:05.929Z,72.34
2022-10-07T03:06:09.716Z,71.90
2022-10-07T03:09:12.805Z,72.13
2022-10-07T03:12:15.496Z,72.43
2022-10-07T03:15:18.360Z,71.37
2022-10-07T03:18:28.498Z,71.56
2022-10-07T03:21:34.079Z,72.86
2022-10-07T03:24:36.735Z,72.73
2022-10-07T03:27:40.238Z,72.01
2022-10-07T03:30:42.816Z,72.41
2022-10-07T03:33:46.762Z,72.02
2022-10-07T03:36:49.324Z,71.88
2022-10-07T03:39:52.720Z,72.23
2022-10-07T03:42:55.388Z,72.12
2022-10-07T03:45:58.299Z,71.91
2022-10-07T03:49:02.549Z,73.06
2022-10-07T03:52:06.551Z,72.04
2022-10-07T03:55:10.116Z,71.63
2022-10-07T03:58:13.008Z,72.79
2022-10-07T04:01:16.359Z,72.08
2022-10-07T04:04:20.717Z,72.60
2022-10-07T04:07:23.295Z,72.80
2022-10-07T04:10:25.946Z,72.39
2022-10-07T04:13:28.954Z,71.35
2022-10-07T04:16:37.810Z,72.38
2022-10-07T04:19:42.205Z,71.97
2022-10-07T04:22:44.809Z,72.71
2022-10-07T04:25:48.336Z,72.84
2022-10-07T04:28:51.498Z,73.08
2022-10-07T04:31:54.845Z,72.46
2022-10-07T04:34:58.892Z,72.30
2022-10-07T04:38:01.462Z,72.71
2022-10-07T04:41:06.901Z,73.05
2022-10-07T04:44:09.460Z,72.75
2022-10-07T04:47:12.242Z,72.33
2022-10-07T04:50:16.672Z,72.58
2022-10-07T04:53:20.471Z,72.50
2022-10-07T04:56:23.421Z,72.11
2022-10-07T04:59:29.729Z,72.40
2022-10-07T05:02:32.890Z,72.81
2022-10-07T05:05:39.297Z,72.93
2022-10-07T05:08:44.077Z,73.42
2022-10-07T05:11:46.747Z,72.89
2022-10-07T05:14:49.305Z,72.98
2022-10-07T05:17:55.934Z,73.23
2022-10-07T05:20:59.887Z,72.41
2022-10-07T05:24:02.439Z,72.57
2022-10-07T05:27:05.239Z,72.67
2022-10-07T05:30:08.773Z,72.80
2022-10-07T05:33:11.454Z,73.16
2022-10-07T05:36:15.485Z,72.59
2022-10-07T05:39:18.035Z,73.03
2022-10-07T05:42:21.093Z,73.43
2022-10-07T05:45:23.656Z,73.22
2022-10-07T05:48:26.323Z,73.20
2022-10-07T05:51:30.364Z,73.32
2022-10-07T05:54:33.223Z,73.38
2022-10-07T05:57:38.370Z,73.73
2022-10-07T06:00:43.404Z,73.28
2022-10-07T06:03:51.056Z,73.16
2022-10-07T06:06:55.262Z,73.49
2022-10-07T06:10:15.556Z,73.57
2022-10-07T06:13:18.343Z,73.40
2022-10-07T06:16:21.698Z,73.58
2022-10-07T06:19:24.555Z,74.67
2022-10-07T06:22:28.859Z,73.67
2022-10-07T06:25:31.406Z,73.89
2022-10-07T06:28:35.057Z,73.50
2022-10-07T06:31:38.067Z,73.46
2022-10-07T06:34:40.824Z,73.23
2022-10-07T06:37:45.041Z,72.27
2022-10-07T06:40:58.873Z,69.65
2022-10-07T06:44:01.712Z,68.46
2022-10-07T06:47:07.877Z,66.27
2022-10-07T06:50:14.062Z,64.08
2022-10-07T06:53:18.154Z,62.99
2022-10-07T06:56:21.110Z,60.81
2022-10-07T06:59:23.820Z,59.47
2022-10-07T07:02:26.592Z,57.72
2022-10-07T07:05:33.545Z,56.29
2022-10-07T07:08:38.780Z,55.11
2022-10-07T07:11:43.458Z,54.64
2022-10-07T07:14:46.053Z,53.15
2022-10-07T07:17:51.135Z,53.84
2022-10-07T07:20:53.932Z,53.38
2022-10-07T07:23:58.882Z,53.11
2022-10-07T07:27:01.829Z,52.94
2022-10-07T07:30:05.403Z,52.47
2022-10-07T07:33:08.359Z,51.83
2022-10-07T07:36:16.440Z,51.26
2022-10-07T07:39:21.185Z,51.28
2022-10-07T07:42:24.008Z,52.18
2022-10-07T07:45:26.605Z,52.83
2022-10-07T07:48:30.532Z,51.74
2022-10-07T07:51:34.329Z,51.55
2022-10-07T07:54:39.672Z,52.56
2022-10-07T07:57:42.779Z,52.68
2022-10-07T08:00:46.135Z,51.09
2022-10-07T08:03:50.048Z,52.52
2022-10-07T08:06:52.881Z,53.06
2022-10-07T08:09:56.894Z,51.96
2022-10-07T08:12:59.426Z,52.27
2022-10-07T08:16:04.160Z,52.80
2022-10-07T08:19:07.142Z,53.63
2022-10-07T08:22:09.695Z,53.44
2022-10-07T08:25:15.084Z,53.38
2022-10-07T08:28:18.571Z,53.20
2022-10-07T08:31:21.636Z,52.32
2022-10-07T08:34:24.535Z,52.99
2022-10-07T08:37:27.149Z,53.61
2022-10-07T08:40:31.352Z,54.77
2022-10-07T08:43:34.754Z,53.04
2022-10-07T08:46:39.225Z,52.96
2022-10-07T08:49:54.545Z,52.92
2022-10-07T08:53:00.248Z,52.51
2022-10-07T08:56:10.677Z,53.97
2022-10-07T08:59:20.405Z,52.48
2022-10-07T09:02:32.295Z,52.33
2022-10-07T09:05:40.411Z,52.37
2022-10-07T09:08:45.654Z,53.54
2022-10-07T09:11:52.035Z,52.94
2022-10-07T09:14:57.885Z,54.35
2022-10-07T09:18:05.596Z,50.88
2022-10-07T09:21:13.718Z,52.47
2022-10-07T09:24:24.752Z,52.34
2022-10-07T09:27:38.181Z,51.51
2022-10-07T09:30:42.240Z,52.87
2022-10-07T09:33:47.021Z,50.25
2022-10-07T09:37:12.986Z,49.30
2022-10-07T09:40:23.814Z,47.85
2022-10-07T09:43:28.435Z,47.43
2022-10-07T09:46:53.330Z,47.35
2022-10-07T09:49:59.789Z,44.53
2022-10-07T09:53:02.888Z,43.31
2022-10-07T09:56:05.560Z,42.34
2022-10-07T09:59:21.876Z,40.18
2022-10-07T10:02:27.597Z,39.99
2022-10-07T10:05:32.826Z,38.79
2022-10-07T10:08:37.928Z,38.47
2022-10-07T10:11:40.671Z,38.77
2022-10-07T10:14:52.505Z,38.40
2022-10-07T10:17:58.649Z,38.85
2022-10-07T10:21:32.495Z,38.07
2022-10-07T10:24:53.776Z,38.24
2022-10-07T10:28:09.272Z,37.08
2022-10-07T10:31:25.481Z,35.65
2022-10-07T10:34:38.309Z,34.78
2022-10-07T10:37:58.376Z,36.56
2022-10-07T10:41:12.595Z,36.66
2022-10-07T10:44:42.947Z,36.34
2022-10-07T10:48:03.270Z,35.88
2022-10-07T10:51:18.011Z,35.17
2022-10-07T10:54:28.902Z,35.73
2022-10-07T10:57:44.242Z,34.76
2022-10-07T11:00:59.694Z,35.08
2022-10-07T11:04:29.726Z,35.87
2022-10-07T11:07:36.728Z,35.52
2022-10-07T11:10:43.219Z,35.45
2022-10-07T11:13:51.855Z,35.63
2022-10-07T11:16:59.668Z,34.73
2022-10-07T11:20:15.475Z,35.34
2022-10-07T11:23:24.381Z,33.31
2022-10-07T11:26:34.718Z,33.39
2022-10-07T11:29:43.541Z,33.23
2022-10-07T11:32:50.660Z,32.89
2022-10-07T11:35:59.491Z,34.40
2022-10-07T11:39:02.428Z,33.64
2022-10-07T11:42:12.597Z,32.93
2022-10-07T11:45:21.378Z,32.97
2022-10-07T11:48:29.728Z,33.01
2022-10-07T11:51:37.860Z,32.27
2022-10-07T11:54:44.187Z,31.67
2022-10-07T11:57:54.083Z,33.87
2022-10-07T12:01:30.572Z,32.89
2022-10-07T12:04:38.902Z,32.86
2022-10-07T12:07:59.318Z,33.35
2022-10-07T12:11:44.038Z,33.41
2022-10-07T12:15:00.589Z,34.44
2022-10-07T12:18:28.799Z,32.18
2022-10-07T12:22:03.164Z,34.91
2022-10-07T12:25:32.373Z,34.83
2022-10-07T12:28:46.013Z,32.94
2022-10-07T12:31:49.502Z,33.50
2022-10-07T12:34:52.287Z,33.45
2022-10-07T12:38:04.253Z,35.09
2022-10-07T12:41:28.173Z,35.33
2022-10-07T12:44:36.928Z,35.65
2022-10-07T12:47:40.290Z,34.06
2022-10-07T12:50:44.658Z,33.34
2022-10-07T12:53:54.312Z,34.11
2022-10-07T12:56:59.621Z,33.46
2022-10-07T13:00:07.974Z,34.14
2022-10-07T13:03:41.063Z,35.92
2022-10-07T13:07:33.376Z,35.19
2022-10-07T13:10:57.620Z,35.78
2022-10-07T13:14:04.859Z,36.15
2022-10-07T13:17:23.739Z,36.52
2022-10-07T13:20:39.431Z,36.45
2022-10-07T13:23:51.529Z,36.80
2022-10-07T13:26:54.259Z,35.24
2022-10-07T13:29:59.694Z,34.77
2022-10-07T13:33:15.726Z,35.55
2022-10-07T13:36:22.107Z,35.72
2022-10-07T13:39:25.751Z,35.77
2022-10-07T13:42:30.033Z,35.72
2022-10-07T13:45:43.096Z,36.70
2022-10-07T13:48:48.323Z,37.23
2022-10-07T13:51:56.100Z,36.13
2022-10-07T13:54:58.917Z,36.84
2022-10-07T13:58:04.642Z,37.49
2022-10-07T14:01:09.207Z,36.84
2022-10-07T14:04:25.275Z,36.51
2022-10-07T14:07:29.489Z,36.07
2022-10-07T14:10:32.695Z,35.67
2022-10-07T14:13:37.843Z,35.70
2022-10-07T14:16:41.840Z,35.21
2022-10-07T14:19:44.751Z,35.02
2022-10-07T14:22:51.029Z,35.10
2022-10-07T14:25:56.225Z,35.59
2022-10-07T14:28:58.800Z,37.52
2022-10-07T14:32:30.514Z,36.21
2022-10-07T14:35:34.125Z,35.64
2022-10-07T14:38:36.783Z,36.96
2022-10-07T14:41:39.539Z,38.01
2022-10-07T14:44:43.974Z,37.66
2022-10-07T14:47:48.519Z,38.29
2022-10-07T14:50:51.835Z,37.98
2022-10-07T14:53:56.922Z,38.21
2022-10-07T14:56:59.764Z,38.59
2022-10-07T15:00:02.739Z,38.18
2022-10-07T15:03:07.032Z,39.08
2022-10-07T15:06:09.717Z,39.09
2022-10-07T15:09:13.656Z,38.96
2022-10-07T15:12:17.457Z,39.20
2022-10-07T15:15:20.342Z,38.49
2022-10-07T15:18:24.350Z,37.87
2022-10-07T15:21:29.453Z,38.36
2022-10-07T15:24:33.058Z,38.97
2022-10-07T15:27:35.648Z,39.40
2022-10-07T15:30:39.542Z,40.50
2022-10-07T15:33:44.315Z,41.11
2022-10-07T15:36:48.081Z,41.26
2022-10-07T15:39:51.284Z,40.50
2022-10-07T15:42:53.890Z,40.45
2022-10-07T15:45:58.804Z,41.26
2022-10-07T15:49:03.640Z,41.29
2022-10-07T15:52:06.554Z,41.30
2022-10-07T15:55:09.710Z,41.36
2022-10-07T15:58:12.422Z,41.33
2022-10-07T16:01:15.706Z,42.49
2022-10-07T16:04:20.337Z,42.87
2022-10-07T16:07:24.095Z,44.63
2022-10-07T16:10:26.971Z,44.81
2022-10-07T16:13:30.427Z,45.95
2022-10-07T16:16:33.236Z,45.84
2022-10-07T16:19:37.204Z,46.35
2022-10-07T16:22:39.772Z,46.89
2022-10-07T16:25:43.377Z,47.50
2022-10-07T16:29:04.912Z,48.79
2022-10-07T16:32:10.559Z,49.60
2022-10-07T16:35:14.756Z,50.63
2022-10-07T16:38:18.065Z,51.13
2022-10-07T16:41:22.020Z,52.32
2022-10-07T16:44:24.935Z,52.81
2022-10-07T16:47:32.887Z,53.77
2022-10-07T16:50:36.843Z,54.56
2022-10-07T16:53:41.122Z,54.87
2022-10-07T16:56:48.056Z,55.72
2022-10-07T16:59:53.405Z,56.45
2022-10-07T17:02:55.949Z,55.97
2022-10-07T17:06:00.165Z,55.49
2022-10-07T17:09:04.329Z,55.30
2022-10-07T17:12:07.010Z,56.77
2022-10-07T17:15:10.128Z,56.35
2022-10-07T17:18:12.764Z,56.58
2022-10-07T17:21:16.670Z,57.08
2022-10-07T17:24:21.767Z,56.96
2022-10-07T17:27:24.381Z,57.09
2022-10-07T17:30:27.057Z,57.77
2022-10-07T17:33:30.242Z,57.80
2022-10-07T17:36:34.582Z,57.79
2022-10-07T17:39:37.419Z,57.91
2022-10-07T17:42:40.113Z,57.94
2022-10-07T17:45:42.910Z,59.27
2022-10-07T17:48:46.578Z,59.38
2022-10-07T17:51:50.637Z,59.59
2022-10-07T17:54:56.643Z,60.15
2022-10-07T17:57:59.247Z,60.25
2022-10-07T18:01:06.884Z,59.92
2022-10-07T18:04:12.796Z,59.93
2022-10-07T18:07:17.533Z,60.26
2022-10-07T18:10:20.186Z,60.61
2022-10-07T18:13:40.755Z,61.29
2022-10-07T18:16:43.545Z,61.30
2022-10-07T18:19:46.609Z,61.43
2022-10-07T18:22:54.679Z,61.06
2022-10-07T18:26:01.968Z,61.52
2022-10-07T18:29:05.394Z,61.59
2022-10-07T18:32:09.172Z,61.77
2022-10-07T18:35:12.019Z,61.70
2022-10-07T18:38:15.986Z,62.53
2022-10-07T18:41:19.772Z,62.17
2022-10-07T18:44:22.718Z,62.92
2022-10-07T18:47:25.365Z,62.65
2022-10-07T18:50:32.698Z,62.80
2022-10-07T18:53:39.498Z,62.43
2022-10-07T18:56:42.125Z,63.42
2022-10-07T18:59:44.726Z,63.07
2022-10-07T19:02:51.133Z,62.85
2022-10-07T19:05:54.120Z,63.25
2022-10-07T19:09:00.107Z,63.30
2022-10-07T19:12:02.901Z,63.50
2022-10-07T19:15:05.193Z,63.61
2022-10-07T19:18:07.757Z,63.49
2022-10-07T19:21:11.347Z,63.28
2022-10-07T19:24:16.425Z,63.70
2022-10-07T19:27:19.106Z,64.37
2022-10-07T19:30:21.622Z,64.43
2022-10-07T19:33:25.457Z,64.49
2022-10-07T19:36:28.224Z,65.19
2022-10-07T19:39:32.107Z,65.04
2022-10-07T19:42:35.002Z,64.90
2022-10-07T19:45:38.629Z,65.53
2022-10-07T19:48:42.336Z,65.57
2022-10-07T19:51:45.487Z,65.63
2022-10-07T19:54:50.427Z,66.30
2022-10-07T19:57:54.530Z,65.73
2022-10-07T20:01:04.136Z,66.20
2022-10-07T20:04:08.726Z,66.66
2022-10-07T20:07:11.565Z,67.08
2022-10-07T20:10:15.532Z,66.77
2022-10-07T20:13:18.118Z,66.60
2022-10-07T20:16:22.554Z,66.59
2022-10-07T20:19:25.194Z,66.46
2022-10-07T20:22:27.748Z,66.69
2022-10-07T20:25:31.733Z,66.78
2022-10-07T20:28:35.674Z,66.57
2022-10-07T20:31:40.153Z,66.78
2022-10-07T20:34:42.910Z,66.75
2022-10-07T20:37:45.477Z,67.27
2022-10-07T20:41:11.720Z,67.57
2022-10-07T20:44:16.003Z,67.62
2022-10-07T20:47:19.725Z,67.52
2022-10-07T20:50:22.484Z,67.23
2022-10-07T20:53:25.035Z,68.40
2022-10-07T20:56:28.950Z,69.11
2022-10-07T20:59:32.417Z,69.49
2022-10-07T21:02:35.073Z,69.35
2022-10-07T21:05:38.555Z,68.55
2022-10-07T21:08:41.564Z,68.61
2022-10-07T21:11:46.017Z,68.26
2022-10-07T21:14:49.871Z,67.74
2022-10-07T21:17:52.385Z,66.98
2022-10-07T21:20:56.961Z,68.38
2022-10-07T21:23:59.792Z,66.90
2022-10-07T21:27:05.485Z,65.95
2022-10-07T21:30:10.378Z,66.73
2022-10-07T21:33:13.534Z,66.84
2022-10-07T21:36:18.666Z,66.98
2022-10-07T21:39:21.464Z,66.39
2022-10-07T21:42:25.620Z,66.59
2022-10-07T21:45:30.981Z,66.68
2022-10-07T21:48:33.779Z,66.47
2022-10-07T21:51:36.767Z,66.02
2022-10-07T21:54:41.077Z,66.54
2022-10-07T21:57:45.081Z,65.51
2022-10-07T22:00:47.867Z,66.38
2022-10-07T22:03:54.871Z,66.48
2022-10-07T22:07:15.531Z,66.64
2022-10-07T22:10:18.389Z,65.83
2022-10-07T22:13:22.343Z,65.86
2022-10-07T22:16:25.297Z,66.17
2022-10-07T22:19:27.932Z,65.73
2022-10-07T22:22:31.643Z,66.00
2022-10-07T22:25:35.213Z,66.11
2022-10-07T22:28:39.795Z,66.08
2022-10-07T22:31:43.001Z,65.48
2022-10-07T22:35:03.120Z,65.87
2022-10-07T22:38:05.906Z,65.11
2022-10-07T22:41:10.753Z,66.21
2022-10-07T22:44:15.181Z,65.61
2022-10-07T22:47:17.760Z,65.78
2022-10-07T22:50:20.357Z,65.19
2022-10-07T22:53:23.037Z,66.30
2022-10-07T22:56:27.592Z,65.43
2022-10-07T22:59:31.623Z,65.64
2022-10-07T23:02:34.464Z,65.92
2022-10-07T23:05:38.036Z,66.24
2022-10-07T23:08:41.169Z,65.92
2022-10-07T23:11:43.755Z,66.16
2022-10-07T23:14:47.923Z,66.28
2022-10-07T23:17:50.480Z,65.86
2022-10-07T23:20:59.694Z,66.32
2022-10-07T23:24:07.264Z,66.64
2022-10-07T23:27:11.259Z,66.24
2022-10-07T23:30:15.360Z,65.94
2022-10-07T23:33:21.239Z,65.97
2022-10-07T23:36:24.969Z,65.69
2022-10-07T23:39:27.574Z,66.30
2022-10-07T23:42:30.638Z,66.48
2022-10-07T23:45:34.551Z,65.59
2022-10-07T23:48:37.402Z,65.79
2022-10-07T23:51:40.198Z,66.50
2022-10-07T23:54:42.883Z,65.90
2022-10-07T23:57:45.460Z,65.77
